sensor_id;sensor_type;location;lat;lon;timestamp;P1;durP1;ratioP1;P2;durP2;ratioP2
17347;SDS011;8791;50.876;4.342;2023-03-26T00:01:14;20.20;;;3.93;;
17347;SDS011;8791;50.876;4.342;2023-03-26T00:03:43;22.57;;;2.93;;
17347;SDS011;8791;50.876;4.342;2023-03-26T00:06:11;18.63;;;4.60;;
17347;SDS011;8791;50.876;4.342;2023-03-26T00:08:40;20.63;;;4.47;;
17347;SDS011;8791;50.876;4.342;2023-03-26T00:11:10;14.53;;;2.77;;
17347;SDS011;8791;50.876;4.342;2023-03-26T00:13:38;16.90;;;3.93;;
17347;SDS011;8791;50.876;4.342;2023-03-26T00:16:07;19.10;;;3.70;;
17347;SDS011;8791;50.876;4.342;2023-03-26T00:18:37;18.73;;;3.57;;
17347;SDS011;8791;50.876;4.342;2023-03-26T00:21:05;12.97;;;3.23;;
17347;SDS011;8791;50.876;4.342;2023-03-26T00:23:33;15.27;;;3.63;;
17347;SDS011;8791;50.876;4.342;2023-03-26T00:26:00;22.00;;;3.67;;
17347;SDS011;8791;50.876;4.342;2023-03-26T00:28:28;17.70;;;3.30;;
17347;SDS011;8791;50.876;4.342;2023-03-26T00:30:56;25.10;;;3.63;;
17347;SDS011;8791;50.876;4.342;2023-03-26T00:33:24;26.00;;;4.43;;
17347;SDS011;8791;50.876;4.342;2023-03-26T00:35:52;19.20;;;3.50;;
17347;SDS011;8791;50.876;4.342;2023-03-26T00:38:20;22.10;;;4.43;;
17347;SDS011;8791;50.876;4.342;2023-03-26T00:40:47;31.47;;;4.10;;
17347;SDS011;8791;50.876;4.342;2023-03-26T00:43:15;17.27;;;3.90;;
17347;SDS011;8791;50.876;4.342;2023-03-26T00:45:44;18.33;;;4.13;;
17347;SDS011;8791;50.876;4.342;2023-03-26T00:48:12;19.53;;;3.60;;
17347;SDS011;8791;50.876;4.342;2023-03-26T00:50:39;23.70;;;4.00;;
17347;SDS011;8791;50.876;4.342;2023-03-26T00:53:08;18.23;;;4.53;;
17347;SDS011;8791;50.876;4.342;2023-03-26T00:55:37;19.97;;;4.20;;
17347;SDS011;8791;50.876;4.342;2023-03-26T00:58:05;35.00;;;5.70;;
17347;SDS011;8791;50.876;4.342;2023-03-26T01:00:34;24.57;;;4.70;;
17347;SDS011;8791;50.876;4.342;2023-03-26T01:03:04;23.60;;;4.23;;
17347;SDS011;8791;50.876;4.342;2023-03-26T01:05:39;20.40;;;4.27;;
17347;SDS011;8791;50.876;4.342;2023-03-26T01:08:15;22.43;;;4.60;;
17347;SDS011;8791;50.876;4.342;2023-03-26T01:10:46;24.40;;;4.60;;
17347;SDS011;8791;50.876;4.342;2023-03-26T01:13:17;19.97;;;4.33;;
17347;SDS011;8791;50.876;4.342;2023-03-26T01:15:45;18.37;;;3.97;;
17347;SDS011;8791;50.876;4.342;2023-03-26T01:18:15;19.37;;;4.07;;
17347;SDS011;8791;50.876;4.342;2023-03-26T01:20:43;27.20;;;4.17;;
17347;SDS011;8791;50.876;4.342;2023-03-26T01:23:16;27.87;;;4.63;;
17347;SDS011;8791;50.876;4.342;2023-03-26T01:25:51;24.90;;;4.50;;
17347;SDS011;8791;50.876;4.342;2023-03-26T01:28:26;16.43;;;3.47;;
17347;SDS011;8791;50.876;4.342;2023-03-26T01:30:58;19.67;;;3.87;;
17347;SDS011;8791;50.876;4.342;2023-03-26T01:33:35;16.33;;;3.77;;
17347;SDS011;8791;50.876;4.342;2023-03-26T01:36:10;12.80;;;3.77;;
17347;SDS011;8791;50.876;4.342;2023-03-26T01:38:46;26.23;;;3.97;;
17347;SDS011;8791;50.876;4.342;2023-03-26T01:41:22;18.27;;;3.80;;
17347;SDS011;8791;50.876;4.342;2023-03-26T01:43:56;15.30;;;3.80;;
17347;SDS011;8791;50.876;4.342;2023-03-26T01:46:27;13.23;;;2.90;;
17347;SDS011;8791;50.876;4.342;2023-03-26T01:49:00;15.43;;;3.37;;
17347;SDS011;8791;50.876;4.342;2023-03-26T01:51:29;16.33;;;2.93;;
17347;SDS011;8791;50.876;4.342;2023-03-26T01:53:59;18.77;;;3.60;;
17347;SDS011;8791;50.876;4.342;2023-03-26T01:56:30;17.50;;;3.63;;
17347;SDS011;8791;50.876;4.342;2023-03-26T01:59:06;15.10;;;3.17;;
17347;SDS011;8791;50.876;4.342;2023-03-26T02:01:42;16.33;;;3.73;;
17347;SDS011;8791;50.876;4.342;2023-03-26T02:04:16;18.80;;;3.33;;
17347;SDS011;8791;50.876;4.342;2023-03-26T02:06:50;20.37;;;3.47;;
17347;SDS011;8791;50.876;4.342;2023-03-26T02:09:26;14.87;;;3.53;;
17347;SDS011;8791;50.876;4.342;2023-03-26T02:11:57;13.80;;;3.53;;
17347;SDS011;8791;50.876;4.342;2023-03-26T02:14:27;21.53;;;4.03;;
17347;SDS011;8791;50.876;4.342;2023-03-26T02:16:55;16.77;;;4.30;;
17347;SDS011;8791;50.876;4.342;2023-03-26T02:19:22;23.03;;;3.53;;
17347;SDS011;8791;50.876;4.342;2023-03-26T02:21:50;15.53;;;3.90;;
17347;SDS011;8791;50.876;4.342;2023-03-26T02:24:17;22.97;;;3.83;;
17347;SDS011;8791;50.876;4.342;2023-03-26T02:26:44;19.03;;;4.10;;
17347;SDS011;8791;50.876;4.342;2023-03-26T02:29:13;26.97;;;4.33;;
17347;SDS011;8791;50.876;4.342;2023-03-26T02:31:43;21.97;;;4.30;;
17347;SDS011;8791;50.876;4.342;2023-03-26T02:34:11;23.50;;;4.33;;
17347;SDS011;8791;50.876;4.342;2023-03-26T02:36:37;20.57;;;4.13;;
17347;SDS011;8791;50.876;4.342;2023-03-26T02:39:07;20.57;;;3.60;;
17347;SDS011;8791;50.876;4.342;2023-03-26T02:41:34;25.63;;;4.10;;
17347;SDS011;8791;50.876;4.342;2023-03-26T02:44:02;16.23;;;3.70;;
17347;SDS011;8791;50.876;4.342;2023-03-26T02:46:30;29.27;;;3.83;;
17347;SDS011;8791;50.876;4.342;2023-03-26T02:48:57;18.50;;;3.93;;
17347;SDS011;8791;50.876;4.342;2023-03-26T02:51:24;20.27;;;3.73;;
17347;SDS011;8791;50.876;4.342;2023-03-26T02:53:51;14.57;;;3.37;;
17347;SDS011;8791;50.876;4.342;2023-03-26T02:56:18;21.60;;;4.07;;
17347;SDS011;8791;50.876;4.342;2023-03-26T02:58:45;24.53;;;4.10;;
17347;SDS011;8791;50.876;4.342;2023-03-26T03:01:12;32.77;;;4.97;;
17347;SDS011;8791;50.876;4.342;2023-03-26T03:03:43;23.23;;;4.20;;
17347;SDS011;8791;50.876;4.342;2023-03-26T03:06:12;25.47;;;4.17;;
17347;SDS011;8791;50.876;4.342;2023-03-26T03:08:41;17.83;;;4.07;;
17347;SDS011;8791;50.876;4.342;2023-03-26T03:11:11;20.30;;;3.50;;
17347;SDS011;8791;50.876;4.342;2023-03-26T03:13:38;20.20;;;3.43;;
17347;SDS011;8791;50.876;4.342;2023-03-26T03:16:05;22.40;;;3.70;;
17347;SDS011;8791;50.876;4.342;2023-03-26T03:18:32;18.23;;;3.33;;
17347;SDS011;8791;50.876;4.342;2023-03-26T03:21:01;21.10;;;3.87;;
17347;SDS011;8791;50.876;4.342;2023-03-26T03:23:27;27.20;;;4.40;;
17347;SDS011;8791;50.876;4.342;2023-03-26T03:25:55;26.60;;;4.50;;
17347;SDS011;8791;50.876;4.342;2023-03-26T03:28:22;23.27;;;4.13;;
17347;SDS011;8791;50.876;4.342;2023-03-26T03:30:50;17.03;;;3.70;;
17347;SDS011;8791;50.876;4.342;2023-03-26T03:33:17;18.10;;;3.67;;
17347;SDS011;8791;50.876;4.342;2023-03-26T03:35:44;24.50;;;4.17;;
17347;SDS011;8791;50.876;4.342;2023-03-26T03:38:13;17.87;;;3.77;;
17347;SDS011;8791;50.876;4.342;2023-03-26T03:40:40;16.07;;;3.73;;
17347;SDS011;8791;50.876;4.342;2023-03-26T03:43:07;25.13;;;3.73;;
17347;SDS011;8791;50.876;4.342;2023-03-26T03:45:34;19.43;;;3.20;;
17347;SDS011;8791;50.876;4.342;2023-03-26T03:48:01;13.90;;;3.53;;
17347;SDS011;8791;50.876;4.342;2023-03-26T03:50:27;28.83;;;4.10;;
17347;SDS011;8791;50.876;4.342;2023-03-26T03:52:55;14.33;;;3.40;;
17347;SDS011;8791;50.876;4.342;2023-03-26T03:55:24;21.17;;;3.97;;
17347;SDS011;8791;50.876;4.342;2023-03-26T03:57:52;24.93;;;3.83;;
17347;SDS011;8791;50.876;4.342;2023-03-26T04:00:20;19.47;;;3.40;;
17347;SDS011;8791;50.876;4.342;2023-03-26T04:02:48;22.17;;;4.13;;
17347;SDS011;8791;50.876;4.342;2023-03-26T04:05:18;16.67;;;3.67;;
17347;SDS011;8791;50.876;4.342;2023-03-26T04:07:45;17.10;;;3.63;;
17347;SDS011;8791;50.876;4.342;2023-03-26T04:10:13;18.17;;;3.63;;
17347;SDS011;8791;50.876;4.342;2023-03-26T04:12:42;14.77;;;3.03;;
17347;SDS011;8791;50.876;4.342;2023-03-26T04:15:09;24.03;;;3.57;;
17347;SDS011;8791;50.876;4.342;2023-03-26T04:17:36;26.37;;;3.57;;
17347;SDS011;8791;50.876;4.342;2023-03-26T04:20:07;17.33;;;3.27;;
17347;SDS011;8791;50.876;4.342;2023-03-26T04:22:39;14.47;;;3.47;;
17347;SDS011;8791;50.876;4.342;2023-03-26T04:25:07;16.53;;;4.13;;
17347;SDS011;8791;50.876;4.342;2023-03-26T04:27:35;20.33;;;3.80;;
17347;SDS011;8791;50.876;4.342;2023-03-26T04:30:04;19.43;;;3.23;;
17347;SDS011;8791;50.876;4.342;2023-03-26T04:32:34;17.40;;;3.37;;
17347;SDS011;8791;50.876;4.342;2023-03-26T04:35:03;14.97;;;3.20;;
17347;SDS011;8791;50.876;4.342;2023-03-26T04:37:32;20.00;;;3.20;;
17347;SDS011;8791;50.876;4.342;2023-03-26T04:40:04;18.70;;;3.73;;
17347;SDS011;8791;50.876;4.342;2023-03-26T04:42:33;18.73;;;3.70;;
17347;SDS011;8791;50.876;4.342;2023-03-26T04:45:02;19.77;;;3.00;;
17347;SDS011;8791;50.876;4.342;2023-03-26T04:47:31;15.30;;;3.07;;
17347;SDS011;8791;50.876;4.342;2023-03-26T04:50:00;16.43;;;2.97;;
17347;SDS011;8791;50.876;4.342;2023-03-26T04:52:27;11.53;;;2.70;;
17347;SDS011;8791;50.876;4.342;2023-03-26T04:54:54;16.23;;;3.00;;
17347;SDS011;8791;50.876;4.342;2023-03-26T04:57:22;16.50;;;2.90;;
17347;SDS011;8791;50.876;4.342;2023-03-26T04:59:53;15.07;;;2.77;;
17347;SDS011;8791;50.876;4.342;2023-03-26T05:02:21;12.10;;;2.73;;
17347;SDS011;8791;50.876;4.342;2023-03-26T05:04:48;9.93;;;2.47;;
17347;SDS011;8791;50.876;4.342;2023-03-26T05:07:16;15.27;;;2.70;;
17347;SDS011;8791;50.876;4.342;2023-03-26T05:09:44;11.53;;;2.80;;
17347;SDS011;8791;50.876;4.342;2023-03-26T05:12:11;15.87;;;2.10;;
17347;SDS011;8791;50.876;4.342;2023-03-26T05:14:39;13.83;;;2.87;;
17347;SDS011;8791;50.876;4.342;2023-03-26T05:17:05;7.67;;;2.20;;
17347;SDS011;8791;50.876;4.342;2023-03-26T05:19:36;4.70;;;1.70;;
17347;SDS011;8791;50.876;4.342;2023-03-26T05:22:03;13.17;;;1.73;;
17347;SDS011;8791;50.876;4.342;2023-03-26T05:24:30;9.43;;;1.53;;
17347;SDS011;8791;50.876;4.342;2023-03-26T05:26:57;6.67;;;1.70;;
17347;SDS011;8791;50.876;4.342;2023-03-26T05:29:24;11.40;;;2.07;;
17347;SDS011;8791;50.876;4.342;2023-03-26T05:31:52;8.53;;;1.67;;
17347;SDS011;8791;50.876;4.342;2023-03-26T05:34:19;13.10;;;1.50;;
17347;SDS011;8791;50.876;4.342;2023-03-26T05:36:49;6.00;;;1.50;;
17347;SDS011;8791;50.876;4.342;2023-03-26T05:39:17;7.17;;;1.47;;
17347;SDS011;8791;50.876;4.342;2023-03-26T05:41:49;8.07;;;1.57;;
17347;SDS011;8791;50.876;4.342;2023-03-26T05:44:17;5.67;;;1.20;;
17347;SDS011;8791;50.876;4.342;2023-03-26T05:46:44;3.57;;;1.20;;
17347;SDS011;8791;50.876;4.342;2023-03-26T05:49:10;2.47;;;1.27;;
17347;SDS011;8791;50.876;4.342;2023-03-26T05:51:37;8.27;;;1.67;;
17347;SDS011;8791;50.876;4.342;2023-03-26T05:54:05;8.17;;;1.90;;
17347;SDS011;8791;50.876;4.342;2023-03-26T05:56:32;12.40;;;2.17;;
17347;SDS011;8791;50.876;4.342;2023-03-26T05:59:00;10.40;;;1.80;;
17347;SDS011;8791;50.876;4.342;2023-03-26T06:01:26;6.90;;;1.80;;
17347;SDS011;8791;50.876;4.342;2023-03-26T06:03:53;4.07;;;1.70;;
17347;SDS011;8791;50.876;4.342;2023-03-26T06:06:20;8.60;;;1.67;;
17347;SDS011;8791;50.876;4.342;2023-03-26T06:08:48;10.53;;;2.23;;
17347;SDS011;8791;50.876;4.342;2023-03-26T06:11:18;8.60;;;2.40;;
17347;SDS011;8791;50.876;4.342;2023-03-26T06:13:46;13.13;;;2.07;;
17347;SDS011;8791;50.876;4.342;2023-03-26T06:16:13;11.40;;;2.40;;
17347;SDS011;8791;50.876;4.342;2023-03-26T06:18:41;16.73;;;2.60;;
17347;SDS011;8791;50.876;4.342;2023-03-26T06:21:08;10.97;;;2.37;;
17347;SDS011;8791;50.876;4.342;2023-03-26T06:23:35;7.97;;;2.13;;
17347;SDS011;8791;50.876;4.342;2023-03-26T06:26:02;7.57;;;2.13;;
17347;SDS011;8791;50.876;4.342;2023-03-26T06:28:30;14.73;;;2.40;;
17347;SDS011;8791;50.876;4.342;2023-03-26T06:30:58;15.10;;;2.33;;
17347;SDS011;8791;50.876;4.342;2023-03-26T06:33:26;12.87;;;2.70;;
17347;SDS011;8791;50.876;4.342;2023-03-26T06:35:53;15.53;;;2.20;;
17347;SDS011;8791;50.876;4.342;2023-03-26T06:38:20;10.43;;;1.80;;
17347;SDS011;8791;50.876;4.342;2023-03-26T06:40:47;7.27;;;2.10;;
17347;SDS011;8791;50.876;4.342;2023-03-26T06:43:14;19.43;;;2.80;;
17347;SDS011;8791;50.876;4.342;2023-03-26T06:45:42;14.80;;;2.43;;
17347;SDS011;8791;50.876;4.342;2023-03-26T06:48:09;16.17;;;2.77;;
17347;SDS011;8791;50.876;4.342;2023-03-26T06:50:36;8.57;;;2.87;;
17347;SDS011;8791;50.876;4.342;2023-03-26T06:53:03;8.50;;;2.27;;
17347;SDS011;8791;50.876;4.342;2023-03-26T06:55:30;13.00;;;2.30;;
17347;SDS011;8791;50.876;4.342;2023-03-26T06:57:56;11.73;;;2.30;;
17347;SDS011;8791;50.876;4.342;2023-03-26T07:00:23;6.47;;;2.43;;
17347;SDS011;8791;50.876;4.342;2023-03-26T07:02:51;9.97;;;2.60;;
17347;SDS011;8791;50.876;4.342;2023-03-26T07:05:18;6.70;;;2.33;;
17347;SDS011;8791;50.876;4.342;2023-03-26T07:07:45;4.87;;;1.70;;
17347;SDS011;8791;50.876;4.342;2023-03-26T07:10:12;8.30;;;1.70;;
17347;SDS011;8791;50.876;4.342;2023-03-26T07:12:40;6.13;;;1.70;;
17347;SDS011;8791;50.876;4.342;2023-03-26T07:15:07;2.60;;;1.30;;
17347;SDS011;8791;50.876;4.342;2023-03-26T07:17:35;6.50;;;1.80;;
17347;SDS011;8791;50.876;4.342;2023-03-26T07:20:04;3.73;;;1.50;;
17347;SDS011;8791;50.876;4.342;2023-03-26T07:22:32;5.03;;;1.87;;
17347;SDS011;8791;50.876;4.342;2023-03-26T07:25:00;6.93;;;1.60;;
17347;SDS011;8791;50.876;4.342;2023-03-26T07:27:34;4.97;;;1.50;;
17347;SDS011;8791;50.876;4.342;2023-03-26T07:30:04;5.73;;;1.50;;
17347;SDS011;8791;50.876;4.342;2023-03-26T07:32:37;5.73;;;1.50;;
17347;SDS011;8791;50.876;4.342;2023-03-26T07:35:12;7.43;;;1.80;;
17347;SDS011;8791;50.876;4.342;2023-03-26T07:37:46;4.77;;;1.87;;
17347;SDS011;8791;50.876;4.342;2023-03-26T07:40:36;7.93;;;1.80;;
17347;SDS011;8791;50.876;4.342;2023-03-26T07:43:14;4.80;;;1.70;;
17347;SDS011;8791;50.876;4.342;2023-03-26T07:45:52;3.40;;;1.90;;
17347;SDS011;8791;50.876;4.342;2023-03-26T07:48:21;4.77;;;1.80;;
17347;SDS011;8791;50.876;4.342;2023-03-26T07:50:53;8.47;;;1.97;;
17347;SDS011;8791;50.876;4.342;2023-03-26T07:53:20;7.20;;;1.90;;
17347;SDS011;8791;50.876;4.342;2023-03-26T07:55:49;10.43;;;2.33;;
17347;SDS011;8791;50.876;4.342;2023-03-26T07:58:22;7.73;;;2.13;;
17347;SDS011;8791;50.876;4.342;2023-03-26T08:01:05;3.73;;;2.20;;
17347;SDS011;8791;50.876;4.342;2023-03-26T08:06:46;4.03;;;2.03;;
17347;SDS011;8791;50.876;4.342;2023-03-26T08:09:21;5.17;;;2.70;;
17347;SDS011;8791;50.876;4.342;2023-03-26T08:11:56;6.87;;;2.50;;
17347;SDS011;8791;50.876;4.342;2023-03-26T08:14:30;7.03;;;2.03;;
17347;SDS011;8791;50.876;4.342;2023-03-26T08:17:07;5.07;;;2.40;;
17347;SDS011;8791;50.876;4.342;2023-03-26T08:19:44;6.20;;;2.20;;
17347;SDS011;8791;50.876;4.342;2023-03-26T08:22:24;13.87;;;2.40;;
17347;SDS011;8791;50.876;4.342;2023-03-26T08:25:03;5.80;;;2.40;;
17347;SDS011;8791;50.876;4.342;2023-03-26T08:27:42;11.03;;;2.20;;
17347;SDS011;8791;50.876;4.342;2023-03-26T08:30:18;3.10;;;2.17;;
17347;SDS011;8791;50.876;4.342;2023-03-26T08:32:48;6.33;;;2.70;;
17347;SDS011;8791;50.876;4.342;2023-03-26T08:35:19;3.93;;;2.60;;
17347;SDS011;8791;50.876;4.342;2023-03-26T08:37:47;5.80;;;2.80;;
17347;SDS011;8791;50.876;4.342;2023-03-26T08:40:17;5.63;;;3.27;;
17347;SDS011;8791;50.876;4.342;2023-03-26T08:43:04;5.00;;;3.47;;
17347;SDS011;8791;50.876;4.342;2023-03-26T08:45:51;7.90;;;4.40;;
17347;SDS011;8791;50.876;4.342;2023-03-26T08:48:51;9.77;;;4.70;;
17347;SDS011;8791;50.876;4.342;2023-03-26T08:51:40;10.50;;;4.83;;
17347;SDS011;8791;50.876;4.342;2023-03-26T08:54:53;10.80;;;6.13;;
17347;SDS011;8791;50.876;4.342;2023-03-26T08:57:56;6.47;;;5.60;;
17347;SDS011;8791;50.876;4.342;2023-03-26T09:00:52;8.40;;;7.73;;
17347;SDS011;8791;50.876;4.342;2023-03-26T09:04:04;8.40;;;7.60;;
17347;SDS011;8791;50.876;4.342;2023-03-26T09:09:47;16.93;;;15.90;;
17347;SDS011;8791;50.876;4.342;2023-03-26T09:12:43;17.33;;;16.27;;
17347;SDS011;8791;50.876;4.342;2023-03-26T09:15:42;18.67;;;17.20;;
17347;SDS011;8791;50.876;4.342;2023-03-26T09:22:05;19.87;;;18.40;;
17347;SDS011;8791;50.876;4.342;2023-03-26T09:25:11;23.17;;;21.50;;
17347;SDS011;8791;50.876;4.342;2023-03-26T09:28:18;23.17;;;21.80;;
17347;SDS011;8791;50.876;4.342;2023-03-26T09:31:30;22.17;;;20.17;;
17347;SDS011;8791;50.876;4.342;2023-03-26T09:34:26;22.43;;;20.70;;
17347;SDS011;8791;50.876;4.342;2023-03-26T09:36:55;22.13;;;20.50;;
17347;SDS011;8791;50.876;4.342;2023-03-26T09:39:33;20.67;;;19.57;;
17347;SDS011;8791;50.876;4.342;2023-03-26T09:42:10;23.70;;;22.00;;
17347;SDS011;8791;50.876;4.342;2023-03-26T09:47:47;24.50;;;22.80;;
17347;SDS011;8791;50.876;4.342;2023-03-26T09:50:34;27.53;;;25.40;;
17347;SDS011;8791;50.876;4.342;2023-03-26T09:53:12;27.30;;;25.40;;
17347;SDS011;8791;50.876;4.342;2023-03-26T09:56:01;27.37;;;25.73;;
17347;SDS011;8791;50.876;4.342;2023-03-26T09:58:50;27.13;;;25.40;;
17347;SDS011;8791;50.876;4.342;2023-03-26T10:01:32;27.13;;;25.07;;
17347;SDS011;8791;50.876;4.342;2023-03-26T10:04:24;26.50;;;24.80;;
17347;SDS011;8791;50.876;4.342;2023-03-26T10:07:04;25.60;;;23.97;;
17347;SDS011;8791;50.876;4.342;2023-03-26T10:09:42;26.30;;;24.30;;
17347;SDS011;8791;50.876;4.342;2023-03-26T10:12:19;27.17;;;25.07;;
17347;SDS011;8791;50.876;4.342;2023-03-26T10:14:56;24.83;;;22.93;;
17347;SDS011;8791;50.876;4.342;2023-03-26T10:17:49;24.50;;;22.73;;
17347;SDS011;8791;50.876;4.342;2023-03-26T10:20:36;25.43;;;23.83;;
17347;SDS011;8791;50.876;4.342;2023-03-26T10:23:38;25.23;;;23.53;;
17347;SDS011;8791;50.876;4.342;2023-03-26T10:26:26;24.47;;;23.03;;
17347;SDS011;8791;50.876;4.342;2023-03-26T10:29:09;24.40;;;23.07;;
17347;SDS011;8791;50.876;4.342;2023-03-26T10:31:51;24.27;;;22.60;;
17347;SDS011;8791;50.876;4.342;2023-03-26T10:34:40;22.97;;;21.57;;
17347;SDS011;8791;50.876;4.342;2023-03-26T10:37:20;23.90;;;22.13;;
17347;SDS011;8791;50.876;4.342;2023-03-26T10:39:58;22.80;;;21.33;;
17347;SDS011;8791;50.876;4.342;2023-03-26T10:45:35;24.80;;;23.03;;
17347;SDS011;8791;50.876;4.342;2023-03-26T10:48:27;22.47;;;21.20;;
17347;SDS011;8791;50.876;4.342;2023-03-26T10:51:11;23.47;;;21.97;;
17347;SDS011;8791;50.876;4.342;2023-03-26T10:54:07;23.50;;;21.70;;
17347;SDS011;8791;50.876;4.342;2023-03-26T10:56:40;23.10;;;21.60;;
17347;SDS011;8791;50.876;4.342;2023-03-26T10:59:11;22.10;;;20.70;;
17347;SDS011;8791;50.876;4.342;2023-03-26T11:01:40;21.43;;;19.87;;
17347;SDS011;8791;50.876;4.342;2023-03-26T11:04:19;20.93;;;19.70;;
17347;SDS011;8791;50.876;4.342;2023-03-26T11:06:54;21.70;;;20.37;;
17347;SDS011;8791;50.876;4.342;2023-03-26T11:09:32;20.57;;;19.27;;
17347;SDS011;8791;50.876;4.342;2023-03-26T11:12:09;21.73;;;20.10;;
17347;SDS011;8791;50.876;4.342;2023-03-26T11:14:45;21.40;;;19.83;;
17347;SDS011;8791;50.876;4.342;2023-03-26T11:17:21;21.20;;;19.87;;
17347;SDS011;8791;50.876;4.342;2023-03-26T11:20:00;21.77;;;20.47;;
17347;SDS011;8791;50.876;4.342;2023-03-26T11:22:34;21.43;;;20.33;;
17347;SDS011;8791;50.876;4.342;2023-03-26T11:25:25;21.13;;;19.97;;
17347;SDS011;8791;50.876;4.342;2023-03-26T11:28:05;19.47;;;18.37;;
17347;SDS011;8791;50.876;4.342;2023-03-26T11:30:41;20.37;;;19.07;;
17347;SDS011;8791;50.876;4.342;2023-03-26T11:33:17;21.20;;;20.10;;
17347;SDS011;8791;50.876;4.342;2023-03-26T11:35:50;22.50;;;20.90;;
17347;SDS011;8791;50.876;4.342;2023-03-26T11:38:22;22.07;;;20.57;;
17347;SDS011;8791;50.876;4.342;2023-03-26T11:40:55;23.23;;;21.83;;
17347;SDS011;8791;50.876;4.342;2023-03-26T11:43:23;21.50;;;20.23;;
17347;SDS011;8791;50.876;4.342;2023-03-26T11:45:54;22.83;;;21.40;;
17347;SDS011;8791;50.876;4.342;2023-03-26T11:48:22;22.17;;;20.63;;
17347;SDS011;8791;50.876;4.342;2023-03-26T11:50:57;20.67;;;19.37;;
17347;SDS011;8791;50.876;4.342;2023-03-26T11:53:28;21.53;;;20.10;;
17347;SDS011;8791;50.876;4.342;2023-03-26T11:55:59;21.53;;;20.07;;
17347;SDS011;8791;50.876;4.342;2023-03-26T11:58:30;21.30;;;20.10;;
17347;SDS011;8791;50.876;4.342;2023-03-26T12:01:02;20.47;;;19.17;;
17347;SDS011;8791;50.876;4.342;2023-03-26T12:03:30;20.93;;;19.27;;
17347;SDS011;8791;50.876;4.342;2023-03-26T12:05:59;20.30;;;19.10;;
17347;SDS011;8791;50.876;4.342;2023-03-26T12:08:29;20.43;;;19.03;;
17347;SDS011;8791;50.876;4.342;2023-03-26T12:11:01;20.83;;;19.63;;
17347;SDS011;8791;50.876;4.342;2023-03-26T12:13:33;19.60;;;18.27;;
17347;SDS011;8791;50.876;4.342;2023-03-26T12:16:05;18.67;;;17.37;;
17347;SDS011;8791;50.876;4.342;2023-03-26T12:18:38;17.40;;;16.50;;
17347;SDS011;8791;50.876;4.342;2023-03-26T12:21:09;19.87;;;18.37;;
17347;SDS011;8791;50.876;4.342;2023-03-26T12:26:27;20.50;;;19.30;;
17347;SDS011;8791;50.876;4.342;2023-03-26T12:28:58;19.80;;;18.47;;
17347;SDS011;8791;50.876;4.342;2023-03-26T12:31:39;19.37;;;18.17;;
17347;SDS011;8791;50.876;4.342;2023-03-26T12:34:19;18.97;;;17.57;;
17347;SDS011;8791;50.876;4.342;2023-03-26T12:36:49;17.53;;;16.37;;
17347;SDS011;8791;50.876;4.342;2023-03-26T12:39:25;16.60;;;15.47;;
17347;SDS011;8791;50.876;4.342;2023-03-26T12:41:55;17.83;;;16.73;;
17347;SDS011;8791;50.876;4.342;2023-03-26T12:44:25;17.57;;;16.33;;
17347;SDS011;8791;50.876;4.342;2023-03-26T12:47:06;18.47;;;17.23;;
17347;SDS011;8791;50.876;4.342;2023-03-26T12:49:35;19.60;;;18.10;;
17347;SDS011;8791;50.876;4.342;2023-03-26T12:52:13;20.57;;;19.40;;
17347;SDS011;8791;50.876;4.342;2023-03-26T12:55:03;18.77;;;17.80;;
17347;SDS011;8791;50.876;4.342;2023-03-26T12:57:41;19.90;;;18.67;;
17347;SDS011;8791;50.876;4.342;2023-03-26T13:00:29;19.60;;;18.30;;
17347;SDS011;8791;50.876;4.342;2023-03-26T13:06:05;21.43;;;19.53;;
17347;SDS011;8791;50.876;4.342;2023-03-26T13:08:59;18.43;;;17.27;;
17347;SDS011;8791;50.876;4.342;2023-03-26T13:11:49;18.33;;;17.20;;
17347;SDS011;8791;50.876;4.342;2023-03-26T13:14:29;17.03;;;16.13;;
17347;SDS011;8791;50.876;4.342;2023-03-26T13:17:07;16.43;;;15.50;;
17347;SDS011;8791;50.876;4.342;2023-03-26T13:19:45;16.63;;;15.60;;
17347;SDS011;8791;50.876;4.342;2023-03-26T13:22:20;14.03;;;13.43;;
17347;SDS011;8791;50.876;4.342;2023-03-26T13:24:57;15.37;;;14.67;;
17347;SDS011;8791;50.876;4.342;2023-03-26T13:27:34;14.43;;;13.70;;
17347;SDS011;8791;50.876;4.342;2023-03-26T13:30:12;16.93;;;15.63;;
17347;SDS011;8791;50.876;4.342;2023-03-26T13:32:48;15.23;;;14.03;;
17347;SDS011;8791;50.876;4.342;2023-03-26T13:35:26;12.90;;;12.03;;
17347;SDS011;8791;50.876;4.342;2023-03-26T13:37:57;13.37;;;12.57;;
17347;SDS011;8791;50.876;4.342;2023-03-26T13:40:32;10.77;;;10.13;;
17347;SDS011;8791;50.876;4.342;2023-03-26T13:45:55;11.27;;;10.47;;
17347;SDS011;8791;50.876;4.342;2023-03-26T13:48:29;9.97;;;9.37;;
17347;SDS011;8791;50.876;4.342;2023-03-26T13:51:02;8.67;;;8.23;;
17347;SDS011;8791;50.876;4.342;2023-03-26T13:53:35;10.00;;;9.40;;
17347;SDS011;8791;50.876;4.342;2023-03-26T13:56:08;4.50;;;4.20;;
17347;SDS011;8791;50.876;4.342;2023-03-26T13:58:40;4.40;;;2.20;;
17347;SDS011;8791;50.876;4.342;2023-03-26T14:01:13;2.43;;;1.90;;
17347;SDS011;8791;50.876;4.342;2023-03-26T14:03:46;2.40;;;2.17;;
17347;SDS011;8791;50.876;4.342;2023-03-26T14:06:25;3.17;;;2.13;;
17347;SDS011;8791;50.876;4.342;2023-03-26T14:08:59;2.27;;;2.00;;
17347;SDS011;8791;50.876;4.342;2023-03-26T14:11:38;2.27;;;1.70;;
17347;SDS011;8791;50.876;4.342;2023-03-26T14:14:15;2.47;;;1.63;;
17347;SDS011;8791;50.876;4.342;2023-03-26T14:16:49;1.70;;;1.60;;
17347;SDS011;8791;50.876;4.342;2023-03-26T14:19:32;1.70;;;1.60;;
17347;SDS011;8791;50.876;4.342;2023-03-26T14:22:23;2.07;;;1.87;;
17347;SDS011;8791;50.876;4.342;2023-03-26T14:25:03;1.60;;;1.50;;
17347;SDS011;8791;50.876;4.342;2023-03-26T14:27:49;1.93;;;1.73;;
17347;SDS011;8791;50.876;4.342;2023-03-26T14:30:30;2.23;;;1.97;;
17347;SDS011;8791;50.876;4.342;2023-03-26T14:33:25;1.77;;;1.67;;
17347;SDS011;8791;50.876;4.342;2023-03-26T14:36:08;1.97;;;1.50;;
17347;SDS011;8791;50.876;4.342;2023-03-26T14:38:59;2.50;;;1.77;;
17347;SDS011;8791;50.876;4.342;2023-03-26T14:41:39;4.03;;;2.47;;
17347;SDS011;8791;50.876;4.342;2023-03-26T14:47:32;4.57;;;2.90;;
17347;SDS011;8791;50.876;4.342;2023-03-26T14:53:02;5.97;;;3.03;;
17347;SDS011;8791;50.876;4.342;2023-03-26T14:55:56;4.37;;;3.23;;
17347;SDS011;8791;50.876;4.342;2023-03-26T14:59:10;3.50;;;3.20;;
17347;SDS011;8791;50.876;4.342;2023-03-26T15:11:15;5.20;;;4.50;;
17347;SDS011;8791;50.876;4.342;2023-03-26T15:13:54;5.53;;;4.37;;
17347;SDS011;8791;50.876;4.342;2023-03-26T15:19:44;7.13;;;4.27;;
17347;SDS011;8791;50.876;4.342;2023-03-26T15:23:02;6.37;;;4.57;;
17347;SDS011;8791;50.876;4.342;2023-03-26T15:26:00;7.73;;;4.70;;
17347;SDS011;8791;50.876;4.342;2023-03-26T15:28:56;4.60;;;4.20;;
17347;SDS011;8791;50.876;4.342;2023-03-26T15:34:28;6.13;;;5.60;;
17347;SDS011;8791;50.876;4.342;2023-03-26T15:40:27;10.40;;;6.60;;
17347;SDS011;8791;50.876;4.342;2023-03-26T15:43:09;7.83;;;6.57;;
17347;SDS011;8791;50.876;4.342;2023-03-26T15:45:41;7.70;;;6.20;;
17347;SDS011;8791;50.876;4.342;2023-03-26T15:51:11;9.87;;;7.67;;
17347;SDS011;8791;50.876;4.342;2023-03-26T15:53:52;14.20;;;13.10;;
17347;SDS011;8791;50.876;4.342;2023-03-26T15:56:48;13.57;;;12.40;;
17347;SDS011;8791;50.876;4.342;2023-03-26T15:59:35;14.90;;;13.70;;
17347;SDS011;8791;50.876;4.342;2023-03-26T16:02:18;13.60;;;12.30;;
17347;SDS011;8791;50.876;4.342;2023-03-26T16:04:59;16.40;;;12.30;;
17347;SDS011;8791;50.876;4.342;2023-03-26T16:07:47;12.67;;;10.80;;
17347;SDS011;8791;50.876;4.342;2023-03-26T16:10:29;18.33;;;11.77;;
17347;SDS011;8791;50.876;4.342;2023-03-26T16:13:28;23.07;;;12.20;;
17347;SDS011;8791;50.876;4.342;2023-03-26T16:16:13;15.77;;;12.50;;
17347;SDS011;8791;50.876;4.342;2023-03-26T16:19:08;17.20;;;11.57;;
17347;SDS011;8791;50.876;4.342;2023-03-26T16:25:25;13.47;;;11.57;;
17347;SDS011;8791;50.876;4.342;2023-03-26T16:31:17;15.77;;;10.17;;